createdAt,value
2023-03-16T00:02:28.129Z,7.25
2023-03-16T00:05:40.839Z,11.60
2023-03-16T00:08:58.893Z,8.20
2023-03-16T00:12:16.307Z,7.93
2023-03-16T00:15:29.453Z,5.70
2023-03-16T00:18:42.091Z,4.65
2023-03-16T00:21:54.439Z,6.32
2023-03-16T00:25:07.428Z,7.37
2023-03-16T00:28:19.778Z,5.47
2023-03-16T00:31:33.980Z,8.60
2023-03-16T00:34:46.855Z,8.70
2023-03-16T00:37:59.522Z,6.90
2023-03-16T00:41:14.315Z,7.12
2023-03-16T00:44:26.945Z,9.55
2023-03-16T00:47:39.316Z,4.90
2023-03-16T00:50:54.520Z,9.43
2023-03-16T00:54:06.889Z,6.85
2023-03-16T00:57:21.665Z,8.32
2023-03-16T01:00:34.027Z,7.22
2023-03-16T01:03:48.315Z,7.70
2023-03-16T01:07:00.615Z,5.53
2023-03-16T01:10:13.400Z,6.85
2023-03-16T01:13:25.905Z,7.03
2023-03-16T01:16:38.551Z,5.20
2023-03-16T01:19:51.581Z,9.13
2023-03-16T01:23:05.200Z,6.22
2023-03-16T01:26:18.717Z,10.13
2023-03-16T01:29:33.059Z,9.02
2023-03-16T01:32:45.641Z,8.57
2023-03-16T01:36:01.378Z,6.00
2023-03-16T01:39:14.690Z,9.85
2023-03-16T01:42:28.105Z,7.93
2023-03-16T01:46:05.149Z,7.70
2023-03-16T01:49:25.433Z,7.32
2023-03-16T01:52:38.106Z,7.00
2023-03-16T01:55:50.780Z,5.07
2023-03-16T01:59:07.069Z,7.75
2023-03-16T02:02:21.297Z,9.23
2023-03-16T02:05:39.382Z,9.75
2023-03-16T02:08:55.343Z,8.50
2023-03-16T02:12:08.578Z,10.40
2023-03-16T02:15:24.547Z,8.33
2023-03-16T02:18:38.252Z,9.25
2023-03-16T02:22:10.787Z,10.43
2023-03-16T02:25:25.485Z,10.60
2023-03-16T02:29:12.971Z,8.38
2023-03-16T02:32:26.996Z,10.60
2023-03-16T02:35:39.382Z,13.10
2023-03-16T02:38:52.056Z,9.80
2023-03-16T02:42:04.798Z,10.13
2023-03-16T02:45:17.809Z,9.07
2023-03-16T02:48:42.845Z,7.97
2023-03-16T02:51:57.580Z,7.97
2023-03-16T02:55:10.441Z,8.02
2023-03-16T02:58:23.101Z,6.35
2023-03-16T03:01:36.583Z,7.37
2023-03-16T03:04:49.170Z,9.10
2023-03-16T03:08:01.491Z,10.13
2023-03-16T03:11:14.553Z,9.75
2023-03-16T03:14:28.376Z,9.75
2023-03-16T03:17:43.036Z,10.43
2023-03-16T03:20:55.673Z,9.43
2023-03-16T03:24:09.086Z,7.87
2023-03-16T03:27:22.698Z,8.63
2023-03-16T03:30:36.339Z,8.95
2023-03-16T03:33:49.193Z,11.23
2023-03-16T03:37:01.865Z,10.70
2023-03-16T03:40:15.762Z,13.18
2023-03-16T03:43:29.300Z,11.50
2023-03-16T03:46:42.106Z,8.50
2023-03-16T03:49:56.170Z,12.68
2023-03-16T03:53:09.110Z,9.23
2023-03-16T03:56:22.920Z,9.35
2023-03-16T03:59:40.835Z,10.18
2023-03-16T04:02:54.646Z,11.68
2023-03-16T04:06:08.247Z,8.23
2023-03-16T04:09:20.884Z,8.45
2023-03-16T04:12:34.105Z,8.90
2023-03-16T04:15:47.015Z,9.20
2023-03-16T04:19:01.747Z,12.15
2023-03-16T04:22:14.413Z,10.55
2023-03-16T04:25:27.591Z,13.07
2023-03-16T04:28:40.307Z,14.15
2023-03-16T04:31:54.210Z,12.75
2023-03-16T04:35:08.098Z,11.35
2023-03-16T04:38:22.397Z,10.70
2023-03-16T04:41:34.853Z,11.18
2023-03-16T04:44:48.176Z,9.15
2023-03-16T04:48:00.939Z,9.75
2023-03-16T04:51:13.716Z,9.63
2023-03-16T04:54:26.657Z,10.45
2023-03-16T04:57:39.403Z,14.02
2023-03-16T05:00:52.619Z,15.07
2023-03-16T05:04:05.832Z,24.58
2023-03-16T05:07:19.263Z,13.48
2023-03-16T05:10:33.377Z,11.68
2023-03-16T05:13:45.893Z,11.82
2023-03-16T05:16:58.700Z,14.80
2023-03-16T05:20:15.434Z,11.75
2023-03-16T05:23:30.201Z,9.18
2023-03-16T05:26:44.161Z,8.85
2023-03-16T05:29:57.313Z,13.95
2023-03-16T05:33:10.290Z,12.70
2023-03-16T05:36:24.810Z,10.25
2023-03-16T05:39:38.156Z,11.52
2023-03-16T05:42:55.079Z,8.32
2023-03-16T05:46:07.892Z,12.18
2023-03-16T05:49:20.756Z,10.15
2023-03-16T05:52:33.950Z,13.35
2023-03-16T05:55:52.705Z,10.63
2023-03-16T05:59:05.405Z,10.82
2023-03-16T06:02:20.072Z,13.62
2023-03-16T06:05:33.601Z,14.48
2023-03-16T06:08:46.263Z,15.68
2023-03-16T06:11:59.468Z,17.12
2023-03-16T06:15:12.293Z,14.57
2023-03-16T06:18:25.839Z,13.07
2023-03-16T06:21:38.368Z,14.87
2023-03-16T06:24:52.464Z,13.52
2023-03-16T06:28:06.121Z,11.27
2023-03-16T06:31:20.028Z,10.93
2023-03-16T06:34:32.788Z,13.13
2023-03-16T06:37:45.823Z,12.57
2023-03-16T06:41:01.881Z,10.88
2023-03-16T06:44:14.910Z,12.52
2023-03-16T06:47:28.332Z,14.98
2023-03-16T06:50:41.029Z,13.23
2023-03-16T06:53:53.961Z,9.45
2023-03-16T06:57:07.157Z,15.60
2023-03-16T07:00:19.938Z,16.10
2023-03-16T07:03:32.943Z,25.45
2023-03-16T07:06:46.593Z,16.85
2023-03-16T07:10:00.198Z,14.38
2023-03-16T07:13:15.283Z,16.67
2023-03-16T07:16:29.170Z,14.10
2023-03-16T07:19:44.013Z,13.70
2023-03-16T07:22:59.604Z,15.38
2023-03-16T07:26:12.628Z,13.05
2023-03-16T07:29:26.010Z,14.38
2023-03-16T07:32:38.545Z,13.40
2023-03-16T07:35:52.089Z,15.90
2023-03-16T07:39:06.314Z,12.70
2023-03-16T07:42:19.938Z,12.05
2023-03-16T07:45:32.594Z,12.05
2023-03-16T07:48:45.758Z,14.90
2023-03-16T07:51:58.130Z,9.40
2023-03-16T07:55:12.394Z,5.68
2023-03-16T07:58:25.103Z,8.55
2023-03-16T08:01:38.024Z,10.00
2023-03-16T08:04:52.200Z,10.52
2023-03-16T08:08:04.906Z,11.00
2023-03-16T08:11:24.022Z,10.75
2023-03-16T08:14:37.112Z,8.88
2023-03-16T08:17:52.510Z,9.23
2023-03-16T08:21:05.258Z,9.32
2023-03-16T08:24:18.075Z,10.73
2023-03-16T08:27:31.050Z,10.05
2023-03-16T08:30:46.077Z,11.18
2023-03-16T08:33:59.515Z,8.40
2023-03-16T08:37:14.145Z,7.97
2023-03-16T08:40:29.761Z,7.12
2023-03-16T08:43:44.673Z,8.40
2023-03-16T08:46:57.661Z,7.75
2023-03-16T08:50:13.111Z,7.60
2023-03-16T08:53:25.497Z,6.30
2023-03-16T08:56:38.244Z,14.50
2023-03-16T08:59:51.517Z,4.70
2023-03-16T09:03:04.708Z,7.57
2023-03-16T09:06:17.291Z,8.50
2023-03-16T09:09:31.134Z,6.35
2023-03-16T09:12:43.701Z,8.18
2023-03-16T09:15:56.910Z,8.30
2023-03-16T09:19:09.333Z,6.28
2023-03-16T09:22:22.084Z,9.05
2023-03-16T09:25:34.634Z,6.07
2023-03-16T09:28:49.370Z,6.35
2023-03-16T09:32:01.758Z,6.72
2023-03-16T09:35:14.951Z,8.55
2023-03-16T09:38:27.508Z,9.05
2023-03-16T09:41:54.038Z,7.97
2023-03-16T09:45:35.881Z,7.78
2023-03-16T09:48:48.646Z,18.37
2023-03-16T09:52:17.091Z,8.15
2023-03-16T09:55:34.842Z,7.93
2023-03-16T10:02:06.028Z,9.95
2023-03-16T10:05:21.715Z,8.80
2023-03-16T10:08:44.187Z,10.15
2023-03-16T10:11:57.490Z,5.93
2023-03-16T10:15:19.428Z,8.05
2023-03-16T10:18:41.826Z,5.97
2023-03-16T10:21:54.731Z,7.18
2023-03-16T10:25:31.655Z,7.00
2023-03-16T10:28:45.581Z,5.95
2023-03-16T10:32:01.532Z,5.15
2023-03-16T10:35:44.803Z,5.40
2023-03-16T10:39:02.565Z,5.28
2023-03-16T10:42:16.950Z,6.43
2023-03-16T10:45:31.341Z,10.57
2023-03-16T10:48:54.950Z,5.55
2023-03-16T10:52:24.976Z,5.15
2023-03-16T10:55:43.340Z,6.55
2023-03-16T10:58:56.375Z,6.18
2023-03-16T11:02:17.485Z,5.00
2023-03-16T11:05:32.415Z,6.95
2023-03-16T11:08:45.328Z,6.25
2023-03-16T11:11:58.065Z,7.50
2023-03-16T11:15:23.664Z,7.97
2023-03-16T11:21:59.225Z,4.18
2023-03-16T11:25:20.408Z,5.45
2023-03-16T11:28:36.549Z,5.50
2023-03-16T11:31:53.592Z,5.50
2023-03-16T11:35:16.585Z,6.15
2023-03-16T11:38:55.146Z,6.18
2023-03-16T11:42:20.667Z,5.47
2023-03-16T11:45:40.138Z,5.95
2023-03-16T11:49:13.979Z,7.43
2023-03-16T11:52:47.907Z,7.85
2023-03-16T11:56:09.289Z,6.53
2023-03-16T11:59:35.176Z,8.85
2023-03-16T12:03:15.324Z,10.73
2023-03-16T12:06:51.375Z,10.85
2023-03-16T12:10:18.653Z,7.50
2023-03-16T12:13:57.699Z,7.43
2023-03-16T12:17:14.825Z,6.82
2023-03-16T12:20:31.710Z,6.55
2023-03-16T12:23:53.457Z,7.03
2023-03-16T12:27:06.829Z,9.57
2023-03-16T12:30:59.210Z,5.20
2023-03-16T12:34:27.686Z,6.07
2023-03-16T12:38:14.338Z,6.07
2023-03-16T12:41:41.203Z,8.43
2023-03-16T12:44:57.808Z,8.23
2023-03-16T12:48:14.614Z,6.10
2023-03-16T12:51:41.433Z,6.05
2023-03-16T12:55:15.101Z,5.78
2023-03-16T12:58:27.571Z,7.25
2023-03-16T13:01:43.854Z,7.45
2023-03-16T13:04:59.309Z,6.72
2023-03-16T13:08:16.312Z,3.80
2023-03-16T13:11:28.799Z,5.53
2023-03-16T13:14:43.968Z,6.40
2023-03-16T13:18:21.363Z,5.30
2023-03-16T13:21:36.565Z,5.32
2023-03-16T13:24:54.048Z,6.78
2023-03-16T13:28:08.361Z,5.55
2023-03-16T13:31:28.665Z,6.87
2023-03-16T13:34:54.235Z,4.57
2023-03-16T13:38:06.852Z,6.80
2023-03-16T13:41:19.493Z,9.30
2023-03-16T13:44:32.034Z,5.20
2023-03-16T13:47:46.055Z,8.02
2023-03-16T13:50:59.758Z,5.40
2023-03-16T13:54:20.516Z,6.80
2023-03-16T13:57:36.667Z,6.30
2023-03-16T14:00:49.481Z,6.23
2023-03-16T14:04:08.656Z,6.25
2023-03-16T14:07:22.862Z,5.68
2023-03-16T14:10:36.113Z,4.15
2023-03-16T14:13:54.681Z,4.40
2023-03-16T14:17:12.436Z,4.07
2023-03-16T14:20:25.930Z,2.67
2023-03-16T14:23:44.024Z,4.65
2023-03-16T14:26:56.478Z,3.67
2023-03-16T14:30:20.260Z,4.55
2023-03-16T14:33:37.796Z,5.22
2023-03-16T14:36:50.473Z,3.45
2023-03-16T14:40:06.075Z,4.72
2023-03-16T14:43:18.736Z,6.43
2023-03-16T14:46:33.255Z,4.10
2023-03-16T14:49:45.945Z,7.32
2023-03-16T14:52:58.440Z,6.90
2023-03-16T14:56:12.150Z,5.00
2023-03-16T14:59:24.490Z,3.97
2023-03-16T15:02:37.149Z,3.58
2023-03-16T15:05:50.651Z,4.55
2023-03-16T15:09:03.402Z,4.03
2023-03-16T15:12:16.774Z,5.72
2023-03-16T15:15:29.994Z,3.87
2023-03-16T15:18:42.739Z,4.22
2023-03-16T15:22:02.955Z,4.40
2023-03-16T15:25:37.100Z,3.83
2023-03-16T15:28:49.766Z,4.32
2023-03-16T15:32:02.173Z,5.80
2023-03-16T15:35:14.882Z,5.50
2023-03-16T15:38:29.172Z,7.10
2023-03-16T15:41:47.853Z,6.53
2023-03-16T15:45:00.704Z,5.15
2023-03-16T15:48:13.969Z,4.95
2023-03-16T15:51:27.626Z,5.57
2023-03-16T15:54:40.207Z,5.05
2023-03-16T15:57:58.797Z,4.18
2023-03-16T16:01:24.094Z,3.58
2023-03-16T16:04:36.789Z,4.78
2023-03-16T16:07:49.121Z,4.30
2023-03-16T16:11:01.847Z,7.15
2023-03-16T16:14:19.486Z,11.60
2023-03-16T16:17:48.017Z,4.70
2023-03-16T16:21:04.213Z,6.10
2023-03-16T16:24:18.450Z,5.22
2023-03-16T16:27:30.777Z,16.42
2023-03-16T16:30:43.506Z,10.30
2023-03-16T16:33:56.034Z,7.82
2023-03-16T16:37:09.389Z,5.12
2023-03-16T16:40:23.524Z,9.27
2023-03-16T16:43:40.404Z,11.98
2023-03-16T16:46:52.857Z,15.52
2023-03-16T16:50:15.729Z,24.67
2023-03-16T16:53:28.100Z,14.40
2023-03-16T16:56:41.274Z,15.27
2023-03-16T16:59:53.636Z,25.35
2023-03-16T17:03:09.066Z,20.83
2023-03-16T17:06:22.207Z,15.07
2023-03-16T17:09:34.821Z,14.57
2023-03-16T17:12:47.593Z,15.32
2023-03-16T17:16:00.604Z,20.37
2023-03-16T17:19:18.501Z,27.13
2023-03-16T17:22:31.099Z,48.97
2023-03-16T17:25:43.430Z,43.90
2023-03-16T17:29:00.369Z,38.97
2023-03-16T17:32:18.211Z,32.50
2023-03-16T17:35:31.362Z,25.55
2023-03-16T17:38:44.017Z,27.15
2023-03-16T17:42:04.838Z,16.37
2023-03-16T17:45:22.235Z,13.95
2023-03-16T17:48:36.162Z,12.98
2023-03-16T17:51:49.106Z,10.13
2023-03-16T17:55:01.718Z,10.02
2023-03-16T17:58:24.936Z,11.32
2023-03-16T18:01:39.112Z,9.13
2023-03-16T18:04:52.198Z,12.80
2023-03-16T18:08:11.995Z,12.63
2023-03-16T18:11:26.195Z,16.55
2023-03-16T18:14:39.741Z,18.15
2023-03-16T18:17:52.719Z,19.30
2023-03-16T18:21:05.236Z,30.85
2023-03-16T18:24:19.698Z,36.85
2023-03-16T18:27:32.825Z,22.90
2023-03-16T18:30:47.508Z,16.92
2023-03-16T18:34:00.868Z,18.80
2023-03-16T18:37:17.770Z,16.55
2023-03-16T18:40:30.577Z,16.92
2023-03-16T18:43:43.839Z,25.40
2023-03-16T18:47:00.573Z,38.22
2023-03-16T18:50:22.867Z,44.53
2023-03-16T18:53:35.230Z,59.25
2023-03-16T18:56:47.873Z,55.47
2023-03-16T19:00:00.278Z,47.08
2023-03-16T19:03:23.570Z,47.10
2023-03-16T19:06:37.325Z,25.30
2023-03-16T19:09:49.913Z,22.48
2023-03-16T19:13:02.267Z,25.88
2023-03-16T19:16:16.868Z,24.85
2023-03-16T19:19:29.244Z,23.75
2023-03-16T19:22:42.503Z,26.75
2023-03-16T19:25:56.047Z,36.75
2023-03-16T19:29:09.857Z,46.08
2023-03-16T19:32:22.268Z,53.50
2023-03-16T19:35:50.722Z,82.62
2023-03-16T19:39:04.283Z,119.22
2023-03-16T19:42:25.889Z,88.90
2023-03-16T19:45:39.228Z,84.10
2023-03-16T19:48:52.623Z,46.13
2023-03-16T19:52:05.936Z,34.72
2023-03-16T19:55:23.257Z,46.45
2023-03-16T19:58:38.615Z,24.80
2023-03-16T20:01:51.465Z,30.15
2023-03-16T20:05:04.308Z,27.67
2023-03-16T20:08:29.072Z,35.00
2023-03-16T20:11:41.789Z,23.17
2023-03-16T20:14:55.506Z,19.12
2023-03-16T20:18:13.602Z,16.35
2023-03-16T20:21:26.621Z,23.23
2023-03-16T20:24:39.770Z,18.87
2023-03-16T20:27:56.428Z,18.60
2023-03-16T20:31:20.791Z,21.75
2023-03-16T20:34:33.533Z,21.67
2023-03-16T20:37:46.402Z,26.17
2023-03-16T20:40:58.864Z,36.78
2023-03-16T20:44:14.217Z,51.13
2023-03-16T20:47:26.733Z,38.67
2023-03-16T20:50:39.943Z,33.55
2023-03-16T20:53:52.562Z,32.38
2023-03-16T20:57:06.716Z,32.85
2023-03-16T21:00:30.732Z,34.47
2023-03-16T21:03:50.214Z,34.92
2023-03-16T21:07:02.530Z,28.17
2023-03-16T21:10:16.786Z,33.78
2023-03-16T21:13:32.824Z,31.87
2023-03-16T21:16:45.443Z,24.10
2023-03-16T21:19:58.550Z,25.30
2023-03-16T21:23:21.808Z,19.30
2023-03-16T21:26:34.246Z,23.62
2023-03-16T21:29:47.280Z,25.45
2023-03-16T21:33:01.773Z,30.10
2023-03-16T21:36:16.919Z,29.33
2023-03-16T21:39:30.289Z,31.60
2023-03-16T21:42:44.708Z,36.13
2023-03-16T21:45:57.435Z,33.05
2023-03-16T21:49:11.015Z,37.10
2023-03-16T21:52:28.150Z,35.60
2023-03-16T21:55:41.407Z,27.55
2023-03-16T21:58:53.940Z,33.78
2023-03-16T22:02:22.979Z,38.70
2023-03-16T22:05:39.887Z,38.95
2023-03-16T22:08:52.666Z,38.47
2023-03-16T22:12:14.240Z,38.25
2023-03-16T22:15:27.576Z,44.70
2023-03-16T22:18:40.442Z,41.15
2023-03-16T22:21:52.806Z,41.88
2023-03-16T22:25:13.305Z,38.10
2023-03-16T22:28:26.050Z,39.47
2023-03-16T22:31:42.051Z,33.85
2023-03-16T22:34:56.124Z,34.83
2023-03-16T22:38:11.252Z,33.08
2023-03-16T22:41:23.601Z,31.45
2023-03-16T22:44:36.213Z,32.40
2023-03-16T22:47:48.716Z,31.02
2023-03-16T22:51:03.866Z,38.40
2023-03-16T22:54:17.629Z,39.60
2023-03-16T22:57:30.399Z,32.65
2023-03-16T23:00:42.906Z,35.33
2023-03-16T23:03:55.545Z,33.90
2023-03-16T23:07:12.541Z,35.10
2023-03-16T23:13:38.641Z,36.67
2023-03-16T23:16:52.623Z,39.05
2023-03-16T23:20:22.979Z,39.28
2023-03-16T23:23:35.666Z,31.23
2023-03-16T23:26:48.031Z,37.70
2023-03-16T23:30:00.611Z,35.40
2023-03-16T23:33:15.618Z,36.20
2023-03-16T23:36:28.297Z,36.92
2023-03-16T23:39:40.660Z,38.78
2023-03-16T23:42:53.842Z,43.17
2023-03-16T23:46:07.217Z,35.13
2023-03-16T23:49:24.785Z,42.95
2023-03-16T23:55:49.522Z,30.98
2023-03-16T23:59:01.816Z,31.70
